• Join FlightAware (Why Join?)
  • Login
  • US Flag 
03:56PM EST


 

Airport Tracker/Info


-or-


 

Live Flight TrackerFlight Track Log ✈ ERR736 ✈ 15-Jun-2013 ✈ PAFA / FAI - PAGA / GAL

Flight Track Log - Related Links

Times and Time Zones

All times are in EDT time to prevent confusion due to time zone crossing. See the ERR736 flight status page for this flight to view local times or setup timezone preferences in your user account.

Time Position Orientation Groundspeed Altitude Reporting Facility
EDT Latitude Longitude Course Direction KTS MPH feet Rate Location/Type
06:07PM 64.8667 -147.6833 276° West 170 196 3,700  Level Anchorage Center
06:08PM 64.9000 -147.7333 328° Northwest 160 184 5,300 1,587 Climbing Anchorage Center
06:09PM 64.9000 -147.8333 270° West 170 196 6,900 1,550 Climbing Anchorage Center
06:10PM 64.9000 -147.9333 270° West 160 184 8,400 1,488 Climbing Anchorage Center
06:11PM 64.9000 -148.0667 270° West 180 207 9,900 1,537 Climbing Anchorage Center
06:12PM 64.8013 -148.8298 276° West  Level FlightAware Approximate
06:12PM 64.9000 -148.1833 270° West 180 207 11,500  Level Anchorage Center
06:13PM 64.9000 -148.3000 270° West 180 207 12,800 1,190 Climbing Anchorage Center
06:14PM 64.9000 -148.4167 270° West 190 219 13,900 1,240 Climbing Anchorage Center
06:15PM 64.9000 -148.5500 270° West 190 219 15,300 1,250 Climbing Anchorage Center
06:16PM 64.9000 -148.6500 270° West 190 219 16,400 1,000 Climbing Anchorage Center
06:17PM 64.9000 -148.7833 270° West 180 207 17,300 793 Climbing Anchorage Center
06:18PM 64.9000 -148.9000 270° West 200 230 18,000 793 Climbing Anchorage Center
06:19PM 64.9000 -149.0333 270° West 200 230 18,900 850 Climbing Anchorage Center
06:20PM 64.9000 -149.1667 270° West 190 219 19,700 744 Climbing Anchorage Center
06:21PM 64.9000 -149.3000 270° West 200 230 20,400 744 Climbing Anchorage Center
06:22PM 64.9000 -149.4333 270° West 200 230 21,200 750 Climbing Anchorage Center
06:23PM 64.9000 -149.5500 270° West 190 219 21,900 694 Climbing Anchorage Center
06:24PM 64.9000 -149.7000 270° West 190 219 22,600 595 Climbing Anchorage Center
06:25PM 64.9000 -149.8333 270° West 200 230 23,100 550 Climbing Anchorage Center
06:26PM 64.9000 -149.9667 270° West 200 230 23,700 446 Climbing Anchorage Center
06:27PM 64.9000 -150.1000 270° West 210 242 24,000 149 Climbing Anchorage Center
06:28PM 64.9000 -150.2500 270° West 210 242 24,000  Level Anchorage Center
06:29PM 64.9000 -150.3833 270° West 210 242 24,000  Level Anchorage Center
06:30PM 64.9000 -150.5333 270° West 220 253 24,000  Level Anchorage Center
06:31PM 64.9000 -150.6833 270° West 220 253 24,000  Level Anchorage Center
06:32PM 64.9000 -150.8167 270° West 220 253 24,000  Level Anchorage Center
06:33PM 64.9000 -150.9667 270° West 220 253 24,000  Level Anchorage Center
06:34PM 64.9000 -151.1167 270° West 220 253 24,000  Level Anchorage Center
06:35PM 64.9000 -151.2500 270° West 220 253 24,000  Level Anchorage Center
06:36PM 64.9000 -151.4000 270° West 220 253 24,000  Level Anchorage Center
06:37PM 64.9000 -151.5333 270° West 220 253 24,000  Level Anchorage Center
06:38PM 64.8833 -151.6833 255° West 210 242 24,000  Level Anchorage Center
06:39PM 64.8833 -151.8333 270° West 210 242 24,000  Level Anchorage Center
06:40PM 64.8833 -151.9667 270° West 210 242 24,000  Level Anchorage Center
06:41PM 64.8833 -152.1000 270° West 200 230 24,000  Level Anchorage Center
06:42PM 64.8833 -152.2500 270° West 210 242 24,000  Level Anchorage Center
06:43PM 64.8833 -152.4000 270° West 220 253 24,000  Level Anchorage Center
06:44PM 64.8667 -152.5333 254° West 210 242 24,000  Level Anchorage Center
06:45PM 64.8667 -152.6833 270° West 210 242 24,000  Level Anchorage Center
06:46PM 64.8667 -152.8167 270° West 220 253 24,000  Level Anchorage Center
06:47PM 64.8667 -152.9667 270° West 220 253 24,000  Level Anchorage Center
06:48PM 64.8667 -153.1000 270° West 220 253 24,000  Level Anchorage Center
06:49PM 64.8500 -153.2500 255° West 220 253 24,000  Level Anchorage Center
06:50PM 64.8500 -153.4000 270° West 220 253 24,000  Level Anchorage Center
06:51PM 64.8500 -153.5333 270° West 220 253 24,000  Level Anchorage Center
06:52PM 64.8500 -153.6833 270° West 210 242 24,000  Level Anchorage Center
06:53PM 64.8500 -153.8333 270° West 230 265 24,000 -545 Level Anchorage Center
06:54PM 64.8333 -153.9667 254° West 220 253 22,900 -1,041 Descending Anchorage Center
06:55PM 64.8333 -154.1167 270° West 210 242 21,900 -950 Descending Anchorage Center
06:56PM 64.8333 -154.2500 270° West 230 265 21,000 -893 Descending Anchorage Center
06:57PM 64.8167 -154.4000 255° West 220 253 20,100 -942 Descending Anchorage Center
06:58PM 64.8167 -154.5333 270° West 210 242 19,100 -796 Descending Anchorage Center
07:00PM 64.8167 -154.8167 270° West 200 230 17,700 -796 Descending Anchorage Center
07:01PM 64.8000 -154.9500 254° West 210 242 16,700 -1,190 Descending Anchorage Center
07:02PM 64.8000 -155.1000 270° West 220 253 15,300 -1,438 Descending Anchorage Center
07:03PM 64.8000 -155.2333 270° West 220 253 13,800 -1,350 Descending Anchorage Center
07:04PM 64.7833 -155.3833 255° West 220 253 12,600 -1,200 Descending Anchorage Center
07:05PM 64.7833 -155.5167 270° West 200 230 11,400 -1,200 Descending Anchorage Center
07:06PM 64.7833 -155.6500 270° West 220 253 10,200 -1,140 Descending Anchorage Center
07:07PM 64.7667 -155.7833 254° West 190 219 9,100 -1,041 Descending Anchorage Center
07:08PM 64.7667 -155.9000 270° West 200 230 8,100 -1,140 Descending Anchorage Center
07:09PM 64.7667 -156.0333 270° West 190 219 6,800 -1,041 Descending Anchorage Center
07:10PM 64.7667 -156.1500 270° West 180 207 6,000 -750 Descending Anchorage Center
07:11PM 64.7667 -156.2833 270° West 190 219 5,300 -700 Descending Anchorage Center
07:14PM 64.7500 -156.4693 270° West  Level FlightAware Approximate
07:21PM 64.7333 -156.9333 270° West  Level FlightAware Approximate
07:22PM 64.7362 -156.9374 270° West  Level Estimated
07:23PM 64.7333 -156.9333 270° West  Level FlightAware Approximate